createdAt,value
2018-09-29T00:00:00.856Z,8.10
2018-09-29T00:02:29.188Z,8.10
2018-09-29T00:04:57.534Z,8.10
2018-09-29T00:07:25.830Z,8.10
2018-09-29T00:09:54.270Z,8.10
2018-09-29T00:12:22.649Z,8.00
2018-09-29T00:14:51.116Z,8.00
2018-09-29T00:17:19.445Z,8.00
2018-09-29T00:19:47.796Z,7.90
2018-09-29T00:22:16.172Z,7.90
2018-09-29T00:24:44.910Z,7.90
2018-09-29T00:27:13.282Z,7.90
2018-09-29T00:29:41.655Z,7.80
2018-09-29T00:32:09.960Z,7.80
2018-09-29T00:34:38.300Z,7.80
2018-09-29T00:37:06.638Z,7.80
2018-09-29T00:39:35.571Z,7.70
2018-09-29T00:42:03.914Z,7.70
2018-09-29T00:44:32.252Z,7.60
2018-09-29T00:47:00.574Z,7.60
2018-09-29T00:49:28.900Z,7.60
2018-09-29T00:51:57.252Z,7.60
2018-09-29T00:54:25.618Z,7.60
2018-09-29T00:56:54.024Z,7.50
2018-09-29T00:59:22.420Z,7.50
2018-09-29T01:01:50.758Z,7.50
2018-09-29T01:04:19.104Z,7.50
2018-09-29T01:06:47.514Z,7.50
2018-09-29T01:09:16.008Z,7.40
2018-09-29T01:11:44.362Z,7.40
2018-09-29T01:14:12.746Z,7.40
2018-09-29T01:16:41.146Z,7.40
2018-09-29T01:19:09.469Z,7.40
2018-09-29T01:21:37.914Z,7.40
2018-09-29T01:24:06.266Z,7.40
2018-09-29T01:26:34.579Z,7.30
2018-09-29T01:29:03.011Z,7.30
2018-09-29T01:31:31.411Z,7.30
2018-09-29T01:33:59.780Z,7.30
2018-09-29T01:36:28.121Z,7.30
2018-09-29T01:38:56.454Z,7.20
2018-09-29T01:41:24.826Z,7.20
2018-09-29T01:43:53.165Z,7.20
2018-09-29T01:46:22.286Z,7.10
2018-09-29T01:48:50.733Z,7.10
2018-09-29T01:51:19.044Z,7.10
2018-09-29T01:53:47.364Z,7.00
2018-09-29T01:56:15.845Z,7.10
2018-09-29T01:58:44.162Z,7.00
2018-09-29T02:01:12.704Z,7.00
2018-09-29T02:03:41.018Z,7.00
2018-09-29T02:06:10.128Z,7.00
2018-09-29T02:08:39.233Z,7.00
2018-09-29T02:11:07.616Z,7.00
2018-09-29T02:13:35.806Z,7.00
2018-09-29T02:16:03.884Z,7.00
2018-09-29T02:18:32.196Z,7.00
2018-09-29T02:21:00.562Z,7.00
2018-09-29T02:23:28.888Z,7.00
2018-09-29T02:25:58.036Z,7.00
2018-09-29T02:28:26.373Z,7.00
2018-09-29T02:30:54.710Z,7.00
2018-09-29T02:33:23.046Z,7.00
2018-09-29T02:35:51.370Z,7.00
2018-09-29T02:38:19.703Z,7.00
2018-09-29T02:40:48.031Z,7.00
2018-09-29T02:43:16.378Z,7.00
2018-09-29T02:45:44.732Z,6.90
2018-09-29T02:48:13.178Z,6.90
2018-09-29T02:50:42.309Z,6.90
2018-09-29T02:53:10.774Z,6.90
2018-09-29T02:55:39.124Z,6.90
2018-09-29T02:58:07.454Z,6.90
2018-09-29T03:00:35.780Z,6.90
2018-09-29T03:03:04.128Z,6.90
2018-09-29T03:05:32.486Z,6.80
2018-09-29T03:08:01.026Z,6.80
2018-09-29T03:10:30.143Z,6.80
2018-09-29T03:12:59.233Z,6.80
2018-09-29T03:15:28.354Z,6.80
2018-09-29T03:17:56.707Z,6.80
2018-09-29T03:20:25.808Z,6.80
2018-09-29T03:22:54.907Z,6.80
2018-09-29T03:25:23.255Z,6.80
2018-09-29T03:27:51.771Z,6.80
2018-09-29T03:30:20.873Z,6.80
2018-09-29T03:32:49.284Z,6.80
2018-09-29T03:35:17.758Z,6.80
2018-09-29T03:37:46.086Z,6.80
2018-09-29T03:40:14.423Z,6.80
2018-09-29T03:42:42.741Z,6.80
2018-09-29T03:45:11.110Z,6.80
2018-09-29T03:47:39.529Z,6.70
2018-09-29T03:50:07.877Z,6.70
2018-09-29T03:52:36.211Z,6.80
2018-09-29T03:55:04.591Z,6.80
2018-09-29T03:57:32.946Z,6.70
2018-09-29T04:00:01.289Z,6.70
2018-09-29T04:02:29.618Z,6.70
2018-09-29T04:04:57.974Z,6.70
2018-09-29T04:07:26.366Z,6.60
2018-09-29T04:09:54.742Z,6.60
2018-09-29T04:12:23.252Z,6.60
2018-09-29T04:14:51.546Z,6.60
2018-09-29T04:17:19.880Z,6.60
2018-09-29T04:19:48.228Z,6.60
2018-09-29T04:22:17.463Z,6.50
2018-09-29T04:24:45.800Z,6.50
2018-09-29T04:27:14.148Z,6.50
2018-09-29T04:29:42.474Z,6.50
2018-09-29T04:32:10.824Z,6.50
2018-09-29T04:34:39.165Z,6.40
2018-09-29T04:37:07.524Z,6.40
2018-09-29T04:39:35.962Z,6.30
2018-09-29T04:42:04.286Z,6.30
2018-09-29T04:44:32.616Z,6.30
2018-09-29T04:47:00.952Z,6.30
2018-09-29T04:49:29.305Z,6.20
2018-09-29T04:51:57.634Z,6.20
2018-09-29T04:54:25.960Z,6.20
2018-09-29T04:56:54.307Z,6.20
2018-09-29T04:59:22.699Z,6.20
2018-09-29T05:01:50.980Z,6.20
2018-09-29T05:04:19.314Z,6.20
2018-09-29T05:06:47.680Z,6.20
2018-09-29T05:09:16.053Z,6.20
2018-09-29T05:11:44.524Z,6.20
2018-09-29T05:14:13.785Z,6.20
2018-09-29T05:16:42.104Z,6.10
2018-09-29T05:19:10.494Z,6.20
2018-09-29T05:21:38.892Z,6.10
2018-09-29T05:24:07.246Z,6.10
2018-09-29T05:26:35.582Z,6.10
2018-09-29T05:29:03.937Z,6.10
2018-09-29T05:31:32.260Z,6.10
2018-09-29T05:34:00.580Z,6.10
2018-09-29T05:36:28.916Z,6.20
2018-09-29T05:38:58.011Z,6.20
2018-09-29T05:41:27.157Z,6.20
2018-09-29T05:43:55.469Z,6.20
2018-09-29T05:46:23.833Z,6.20
2018-09-29T05:48:52.156Z,6.20
2018-09-29T05:51:21.538Z,6.10
2018-09-29T05:53:49.890Z,6.00
2018-09-29T05:56:18.344Z,6.00
2018-09-29T05:58:46.752Z,6.00
2018-09-29T06:01:15.087Z,6.10
2018-09-29T06:03:43.438Z,6.10
2018-09-29T06:06:11.847Z,6.10
2018-09-29T06:08:40.221Z,6.20
2018-09-29T06:11:09.301Z,6.20
2018-09-29T06:13:37.628Z,6.20
2018-09-29T06:16:06.137Z,6.30
2018-09-29T06:18:34.453Z,6.30
2018-09-29T06:21:03.593Z,6.40
2018-09-29T06:23:32.213Z,6.40
2018-09-29T06:26:00.539Z,6.50
2018-09-29T06:28:28.950Z,6.50
2018-09-29T06:30:57.310Z,6.60
2018-09-29T06:33:25.625Z,6.60
2018-09-29T06:35:54.154Z,6.70
2018-09-29T06:38:23.290Z,6.90
2018-09-29T06:40:51.654Z,6.90
2018-09-29T06:43:20.779Z,7.10
2018-09-29T06:45:49.171Z,7.10
2018-09-29T06:48:17.615Z,7.20
2018-09-29T06:50:46.030Z,7.30
2018-09-29T06:53:15.127Z,7.50
2018-09-29T06:55:43.775Z,7.50
2018-09-29T06:58:12.123Z,7.70
2018-09-29T07:00:44.094Z,7.80
2018-09-29T07:03:12.445Z,7.80
2018-09-29T07:05:41.930Z,8.00
2018-09-29T07:08:10.259Z,8.00
2018-09-29T07:10:38.653Z,8.10
2018-09-29T07:13:07.089Z,8.20
2018-09-29T07:15:35.402Z,8.30
2018-09-29T07:18:03.806Z,8.40
2018-09-29T07:20:32.126Z,8.50
2018-09-29T07:23:02.301Z,8.70
2018-09-29T07:25:30.741Z,8.70
2018-09-29T07:27:59.085Z,8.80
2018-09-29T07:30:28.319Z,8.90
2018-09-29T07:32:57.457Z,9.00
2018-09-29T07:35:25.769Z,9.00
2018-09-29T07:37:54.113Z,9.20
2018-09-29T07:40:22.429Z,9.40
2018-09-29T07:42:50.882Z,9.50
2018-09-29T07:45:19.277Z,9.60
2018-09-29T07:47:47.666Z,9.70
2018-09-29T07:50:15.967Z,9.90
2018-09-29T07:52:44.347Z,9.90
2018-09-29T07:55:12.743Z,10.00
2018-09-29T07:57:41.148Z,10.10
2018-09-29T08:00:09.661Z,10.20
2018-09-29T08:02:38.162Z,10.10
2018-09-29T08:05:07.336Z,10.30
2018-09-29T08:07:35.785Z,10.30
2018-09-29T08:10:04.189Z,10.40
2018-09-29T08:12:35.559Z,10.50
2018-09-29T08:15:03.903Z,10.60
2018-09-29T08:17:32.279Z,10.60
2018-09-29T08:20:00.664Z,10.60
2018-09-29T08:22:29.387Z,10.70
2018-09-29T08:24:57.799Z,10.70
2018-09-29T08:27:26.331Z,10.90
2018-09-29T08:29:54.821Z,11.00
2018-09-29T08:32:23.288Z,11.00
2018-09-29T08:34:51.753Z,11.10
2018-09-29T08:37:20.155Z,11.20
2018-09-29T08:39:48.575Z,11.40
2018-09-29T08:42:16.906Z,11.50
2018-09-29T08:44:45.610Z,11.50
2018-09-29T08:47:14.042Z,11.50
2018-09-29T08:49:42.408Z,11.50
2018-09-29T08:52:10.799Z,11.50
2018-09-29T08:54:39.204Z,11.50
2018-09-29T08:57:07.599Z,11.60
2018-09-29T08:59:35.964Z,11.60
2018-09-29T09:02:04.609Z,11.70
2018-09-29T09:04:33.731Z,11.90
2018-09-29T09:07:02.182Z,11.80
2018-09-29T09:09:31.321Z,11.80
2018-09-29T09:12:00.563Z,11.90
2018-09-29T09:14:28.907Z,11.90
2018-09-29T09:16:57.441Z,12.00
2018-09-29T09:19:25.792Z,12.00
2018-09-29T09:21:54.207Z,12.10
2018-09-29T09:24:22.736Z,12.20
2018-09-29T09:26:51.045Z,12.20
2018-09-29T09:29:20.231Z,12.40
2018-09-29T09:31:49.394Z,12.40
2018-09-29T09:34:17.759Z,12.50
2018-09-29T09:36:46.165Z,12.60
2018-09-29T09:39:14.527Z,12.80
2018-09-29T09:41:42.946Z,12.80
2018-09-29T09:44:11.511Z,12.90
2018-09-29T09:46:39.865Z,12.90
2018-09-29T09:49:08.302Z,12.80
2018-09-29T09:51:37.571Z,13.00
2018-09-29T09:54:06.106Z,13.00
2018-09-29T09:56:34.513Z,13.10
2018-09-29T09:59:02.866Z,13.30
2018-09-29T10:01:33.228Z,13.40
2018-09-29T10:04:02.243Z,13.40
2018-09-29T10:06:30.694Z,13.50
2018-09-29T10:08:59.009Z,13.60
2018-09-29T10:11:27.365Z,13.70
2018-09-29T10:13:55.827Z,13.70
2018-09-29T10:16:24.203Z,13.80
2018-09-29T10:18:52.544Z,14.00
2018-09-29T10:21:21.777Z,14.40
2018-09-29T10:23:50.171Z,14.30
2018-09-29T10:26:18.966Z,14.40
2018-09-29T10:28:47.413Z,14.50
2018-09-29T10:31:15.783Z,14.60
2018-09-29T10:33:44.915Z,15.40
2018-09-29T10:36:13.353Z,15.40
2018-09-29T10:38:41.659Z,15.70
2018-09-29T10:41:09.999Z,16.40
2018-09-29T10:43:39.111Z,18.10
2018-09-29T10:46:07.525Z,18.00
2018-09-29T10:48:36.011Z,18.80
2018-09-29T10:51:04.341Z,19.30
2018-09-29T10:53:32.760Z,20.30
2018-09-29T10:56:01.132Z,20.80
2018-09-29T10:58:29.487Z,21.50
2018-09-29T11:00:57.848Z,22.10
2018-09-29T11:03:26.989Z,23.00
2018-09-29T11:05:55.421Z,22.90
2018-09-29T11:08:23.816Z,23.10
2018-09-29T11:10:52.159Z,23.50
2018-09-29T11:13:20.608Z,23.50
2018-09-29T11:15:48.972Z,23.70
2018-09-29T11:18:17.359Z,23.90
2018-09-29T11:20:45.725Z,23.90
2018-09-29T11:23:14.100Z,24.10
2018-09-29T11:25:43.220Z,24.60
2018-09-29T11:28:11.654Z,24.60
2018-09-29T11:30:39.983Z,24.80
2018-09-29T11:33:08.343Z,25.20
2018-09-29T11:35:36.749Z,25.30
2018-09-29T11:38:05.335Z,25.40
2018-09-29T11:40:33.722Z,25.90
2018-09-29T11:43:02.191Z,26.00
2018-09-29T11:45:30.566Z,26.10
2018-09-29T11:47:58.960Z,26.20
2018-09-29T11:50:28.168Z,26.70
2018-09-29T11:52:56.566Z,26.60
2018-09-29T11:55:24.917Z,26.50
2018-09-29T11:57:53.245Z,26.60
2018-09-29T12:00:22.345Z,26.90
2018-09-29T12:02:51.477Z,27.10
2018-09-29T12:05:19.851Z,27.00
2018-09-29T12:07:48.268Z,27.20
2018-09-29T12:10:16.597Z,27.20
2018-09-29T12:12:45.078Z,27.20
2018-09-29T12:15:13.466Z,27.00
2018-09-29T12:17:41.846Z,27.40
2018-09-29T12:20:10.178Z,27.60
2018-09-29T12:22:38.551Z,27.90
2018-09-29T12:25:06.905Z,28.10
2018-09-29T12:27:35.255Z,27.80
2018-09-29T12:30:04.343Z,27.90
2018-09-29T12:32:32.689Z,27.90
2018-09-29T12:35:01.063Z,27.50
2018-09-29T12:37:29.475Z,27.80
2018-09-29T12:39:57.797Z,27.60
2018-09-29T12:42:26.376Z,27.60
2018-09-29T12:44:54.737Z,27.50
2018-09-29T12:47:23.849Z,27.40
2018-09-29T12:49:52.288Z,27.40
2018-09-29T12:52:21.479Z,27.40
2018-09-29T12:54:49.893Z,27.40
2018-09-29T12:57:18.266Z,27.50
2018-09-29T12:59:46.693Z,27.50
2018-09-29T13:02:15.114Z,27.60
2018-09-29T13:04:43.656Z,27.40
2018-09-29T13:07:11.969Z,27.50
2018-09-29T13:09:40.447Z,27.60
2018-09-29T13:12:08.810Z,27.60
2018-09-29T13:14:37.193Z,27.30
2018-09-29T13:17:05.525Z,26.70
2018-09-29T13:19:34.006Z,25.50
2018-09-29T13:22:02.364Z,25.20
2018-09-29T13:24:30.756Z,24.80
2018-09-29T13:26:59.135Z,24.30
2018-09-29T13:29:27.489Z,24.40
2018-09-29T13:31:56.670Z,25.50
2018-09-29T13:34:24.962Z,25.50
2018-09-29T13:36:53.347Z,26.40
2018-09-29T13:39:21.671Z,27.20
2018-09-29T13:41:50.049Z,27.40
2018-09-29T13:44:18.375Z,27.80
2018-09-29T13:46:46.852Z,28.20
2018-09-29T13:49:15.947Z,28.80
2018-09-29T13:51:45.037Z,28.90
2018-09-29T13:54:14.175Z,28.50
2018-09-29T13:56:42.515Z,28.50
2018-09-29T13:59:10.875Z,28.50
2018-09-29T14:01:39.298Z,28.30
2018-09-29T14:04:07.670Z,28.30
2018-09-29T14:06:36.027Z,28.50
2018-09-29T14:09:05.283Z,28.60
2018-09-29T14:11:33.659Z,28.70
2018-09-29T14:14:01.999Z,28.50
2018-09-29T14:16:30.526Z,28.40
2018-09-29T14:18:58.867Z,28.50
2018-09-29T14:21:27.306Z,28.60
2018-09-29T14:23:55.677Z,28.90
2018-09-29T14:26:24.036Z,28.70
2018-09-29T14:28:52.358Z,28.40
2018-09-29T14:31:21.494Z,27.40
2018-09-29T14:33:49.961Z,27.30
2018-09-29T14:36:19.277Z,27.20
2018-09-29T14:38:47.606Z,27.20
2018-09-29T14:41:16.241Z,27.30
2018-09-29T14:43:45.375Z,27.10
2018-09-29T14:46:13.924Z,27.10
2018-09-29T14:48:42.473Z,27.00
2018-09-29T14:51:11.767Z,26.80
2018-09-29T14:53:40.207Z,26.80
2018-09-29T14:56:08.694Z,26.60
2018-09-29T14:58:37.150Z,26.40
2018-09-29T15:01:05.598Z,25.90
2018-09-29T15:03:34.103Z,25.80
2018-09-29T15:06:03.202Z,24.90
2018-09-29T15:08:31.551Z,24.90
2018-09-29T15:10:59.967Z,24.50
2018-09-29T15:13:28.411Z,24.40
2018-09-29T15:15:56.801Z,24.40
2018-09-29T15:18:25.436Z,24.30
2018-09-29T15:20:53.761Z,24.30
2018-09-29T15:23:22.087Z,24.20
2018-09-29T15:25:50.427Z,24.00
2018-09-29T15:28:19.531Z,23.50
2018-09-29T15:30:48.637Z,23.20
2018-09-29T15:33:17.025Z,23.20
2018-09-29T15:35:45.411Z,22.60
2018-09-29T15:38:14.001Z,22.40
2018-09-29T15:40:42.325Z,22.30
2018-09-29T15:43:11.689Z,22.00
2018-09-29T15:45:40.018Z,22.00
2018-09-29T15:48:09.241Z,22.20
2018-09-29T15:50:38.380Z,22.00
2018-09-29T15:53:06.741Z,22.00
2018-09-29T15:55:35.131Z,21.90
2018-09-29T15:58:03.487Z,21.80
2018-09-29T16:00:31.908Z,21.60
2018-09-29T16:03:00.229Z,21.50
2018-09-29T16:05:29.330Z,21.30
2018-09-29T16:07:57.707Z,21.30
2018-09-29T16:10:26.824Z,21.00
2018-09-29T16:12:55.146Z,20.90
2018-09-29T16:15:23.657Z,20.80
2018-09-29T16:17:52.752Z,20.30
2018-09-29T16:20:21.845Z,19.70
2018-09-29T16:22:51.223Z,19.20
2018-09-29T16:25:19.641Z,19.20
2018-09-29T16:27:48.773Z,18.20
2018-09-29T16:30:17.095Z,18.10
2018-09-29T16:32:46.238Z,17.30
2018-09-29T16:35:14.821Z,17.30
2018-09-29T16:37:44.699Z,16.60
2018-09-29T16:40:13.044Z,16.60
2018-09-29T16:42:41.393Z,16.30
2018-09-29T16:45:09.967Z,16.10
2018-09-29T16:47:38.665Z,15.90
2018-09-29T16:50:07.097Z,15.60
2018-09-29T16:52:36.355Z,15.30
2018-09-29T16:55:04.709Z,15.20
2018-09-29T16:57:33.055Z,15.10
2018-09-29T17:00:01.898Z,14.90
2018-09-29T17:02:31.269Z,14.70
2018-09-29T17:05:00.478Z,14.40
2018-09-29T17:07:29.627Z,14.20
2018-09-29T17:09:58.610Z,14.20
2018-09-29T17:12:26.942Z,14.10
2018-09-29T17:14:55.363Z,13.90
2018-09-29T17:17:24.554Z,13.60
2018-09-29T17:19:53.050Z,13.60
2018-09-29T17:22:21.359Z,13.50
2018-09-29T17:24:50.491Z,13.30
2018-09-29T17:27:18.829Z,13.30
2018-09-29T17:29:47.239Z,13.20
2018-09-29T17:32:16.374Z,13.00
2018-09-29T17:34:44.839Z,12.90
2018-09-29T17:37:13.409Z,12.90
2018-09-29T17:39:42.729Z,12.60
2018-09-29T17:42:11.167Z,12.60
2018-09-29T17:44:39.661Z,12.50
2018-09-29T17:47:08.114Z,12.50
2018-09-29T17:49:36.764Z,12.40
2018-09-29T17:52:05.171Z,12.30
2018-09-29T17:54:33.488Z,12.30
2018-09-29T17:57:02.001Z,12.20
2018-09-29T17:59:30.460Z,12.10
2018-09-29T18:01:58.956Z,12.10
2018-09-29T18:04:27.349Z,12.00
2018-09-29T18:06:55.688Z,11.90
2018-09-29T18:09:24.053Z,11.90
2018-09-29T18:11:52.536Z,11.80
2018-09-29T18:14:22.383Z,11.70
2018-09-29T18:16:50.822Z,11.70
2018-09-29T18:19:19.969Z,11.60
2018-09-29T18:21:48.445Z,11.60
2018-09-29T18:24:16.763Z,11.60
2018-09-29T18:26:45.274Z,11.60
2018-09-29T18:29:14.414Z,11.50
2018-09-29T18:31:42.838Z,11.50
2018-09-29T18:34:11.200Z,11.40
2018-09-29T18:36:39.564Z,11.40
2018-09-29T18:39:07.896Z,11.40
2018-09-29T18:41:36.292Z,11.40
2018-09-29T18:44:04.678Z,11.30
2018-09-29T18:46:33.054Z,11.20
2018-09-29T18:49:01.513Z,11.20
2018-09-29T18:51:30.881Z,11.10
2018-09-29T18:53:59.335Z,11.10
2018-09-29T18:56:27.694Z,11.10
2018-09-29T18:58:56.066Z,11.00
2018-09-29T19:01:24.451Z,11.00
2018-09-29T19:03:52.834Z,11.00
2018-09-29T19:06:21.192Z,10.90
2018-09-29T19:08:49.498Z,10.90
2018-09-29T19:11:17.942Z,10.80
2018-09-29T19:13:47.076Z,10.80
2018-09-29T19:16:15.455Z,10.80
2018-09-29T19:18:44.009Z,10.80
2018-09-29T19:21:12.428Z,10.80
2018-09-29T19:23:40.808Z,10.80
2018-09-29T19:26:09.170Z,10.80
2018-09-29T19:28:37.612Z,10.80
2018-09-29T19:31:06.735Z,10.80
2018-09-29T19:33:35.143Z,10.80
2018-09-29T19:36:03.586Z,10.80
2018-09-29T19:38:32.348Z,10.80
2018-09-29T19:41:00.744Z,10.80
2018-09-29T19:43:29.156Z,10.80
2018-09-29T19:45:57.501Z,10.70
2018-09-29T19:48:26.840Z,10.70
2018-09-29T19:50:55.203Z,10.60
2018-09-29T19:53:23.629Z,10.70
2018-09-29T19:55:51.941Z,10.70
2018-09-29T19:58:21.798Z,10.60
2018-09-29T20:00:50.313Z,10.60
2018-09-29T20:03:18.606Z,10.70
2018-09-29T20:05:46.986Z,10.70
2018-09-29T20:08:15.332Z,10.70
2018-09-29T20:10:43.700Z,10.70
2018-09-29T20:13:12.162Z,10.70
2018-09-29T20:15:40.548Z,10.60
2018-09-29T20:18:09.148Z,10.60
2018-09-29T20:20:37.499Z,10.60
2018-09-29T20:23:05.820Z,10.60
2018-09-29T20:25:34.188Z,10.60
2018-09-29T20:28:02.521Z,10.60
2018-09-29T20:30:30.906Z,10.60
2018-09-29T20:33:00.000Z,10.60
2018-09-29T20:35:28.390Z,10.50
2018-09-29T20:37:56.741Z,10.60
2018-09-29T20:40:25.902Z,10.50
2018-09-29T20:42:54.237Z,10.50
2018-09-29T20:45:22.591Z,10.50
2018-09-29T20:47:51.922Z,10.50
2018-09-29T20:50:20.241Z,10.40
2018-09-29T20:52:48.570Z,10.50
2018-09-29T20:55:16.972Z,10.40
2018-09-29T20:57:45.326Z,10.40
2018-09-29T21:00:14.792Z,10.40
2018-09-29T21:02:43.134Z,10.40
2018-09-29T21:05:11.457Z,10.30
2018-09-29T21:07:39.847Z,10.20
2018-09-29T21:10:08.204Z,10.20
2018-09-29T21:12:36.589Z,10.10
2018-09-29T21:15:04.924Z,10.00
2018-09-29T21:17:33.240Z,9.90
2018-09-29T21:20:01.576Z,9.80
2018-09-29T21:22:29.926Z,9.80
2018-09-29T21:24:58.340Z,9.70
2018-09-29T21:27:26.901Z,9.70
2018-09-29T21:29:55.267Z,9.70
2018-09-29T21:32:24.378Z,9.60
2018-09-29T21:34:53.654Z,9.60
2018-09-29T21:37:21.750Z,9.60
2018-09-29T21:39:50.170Z,9.50
2018-09-29T21:42:18.568Z,9.60
2018-09-29T21:44:47.422Z,9.50
2018-09-29T21:47:16.142Z,9.50
2018-09-29T21:49:44.567Z,9.50
2018-09-29T21:52:13.690Z,9.40
2018-09-29T21:54:42.754Z,9.30
2018-09-29T21:57:11.912Z,9.30
2018-09-29T21:59:40.321Z,9.30
2018-09-29T22:02:08.654Z,9.20
2018-09-29T22:04:37.083Z,9.20
2018-09-29T22:07:05.374Z,9.20
2018-09-29T22:09:34.480Z,9.00
2018-09-29T22:12:02.830Z,9.00
2018-09-29T22:14:31.168Z,9.00
2018-09-29T22:17:00.212Z,9.00
2018-09-29T22:19:29.324Z,8.90
2018-09-29T22:21:57.659Z,8.90
2018-09-29T22:24:26.108Z,8.90
2018-09-29T22:26:54.435Z,8.90
2018-09-29T22:29:22.764Z,8.90
2018-09-29T22:31:51.177Z,8.90
2018-09-29T22:34:19.474Z,8.90
2018-09-29T22:36:48.049Z,8.90
2018-09-29T22:39:16.351Z,8.90
2018-09-29T22:41:45.483Z,8.90
2018-09-29T22:44:13.826Z,8.90
2018-09-29T22:46:42.384Z,8.90
2018-09-29T22:49:10.684Z,8.90
2018-09-29T22:51:39.214Z,8.80
2018-09-29T22:54:07.626Z,8.80
2018-09-29T22:56:36.008Z,8.80
2018-09-29T22:59:04.338Z,8.70
2018-09-29T23:01:32.752Z,8.70
2018-09-29T23:04:01.069Z,8.60
2018-09-29T23:06:30.198Z,8.50
2018-09-29T23:08:58.590Z,8.50
2018-09-29T23:11:26.917Z,8.50
2018-09-29T23:13:55.240Z,8.40
2018-09-29T23:16:23.570Z,8.40
2018-09-29T23:18:52.725Z,8.40
2018-09-29T23:21:21.758Z,8.40
2018-09-29T23:23:50.093Z,8.40
2018-09-29T23:26:18.424Z,8.40
2018-09-29T23:28:47.556Z,8.30
2018-09-29T23:31:15.870Z,8.30
2018-09-29T23:33:44.288Z,8.20
2018-09-29T23:36:13.374Z,8.10
2018-09-29T23:38:41.714Z,8.10
2018-09-29T23:41:10.050Z,9.20
2018-09-29T23:43:39.138Z,8.00
2018-09-29T23:46:08.249Z,8.00
2018-09-29T23:48:36.626Z,8.00
2018-09-29T23:51:04.948Z,8.00
2018-09-29T23:53:33.284Z,8.00
2018-09-29T23:56:01.627Z,7.90
2018-09-29T23:58:29.958Z,7.90
